โซล, ประเทศเกาหลีใต้

03:21 PM KST วัน ตุลาคม 22, 2014 (GMT +0900)
IGYEONGG3 | Change Station
CLOSE
Current Station
Personal Weather Stations
Location: Bucheon3, GYEONGGI
Elevation: 115 ft
Nearby Weather Stations

Elev 115 ft 37.53 °N, 126.83 °E | Updated 11 minutes ago

Mostly Cloudy
มีเมฆคลุมเป็นส่วนใหญ่
63.4 ฟาเรนไฮน์
Feels Like 63.4 ฟาเรนไฮน์
N
1.0
ลม ความผันแปร ลม from ทางทิศตะวันออกและทิศตะวันออกเฉียงใต้
Gusts 7.0 mph

วันนี้
High -- | Low -- ฟาเรนไฮน์
--% Chance of Precip.
Yesterday
High -- | Low -- ฟาเรนไฮน์
Precip. -- นิ้ว
6:46 AM 5:46 PM
เดือนเสี้ยว, 3% visible
ความดัน 30.12 นิ้ว
ทัศนวิสัย 6.2 ไมล์
เมฆ มีเมฆคลุมเป็นส่วนใหญ่ 4000 ft
อุณหภูมิที่อากาศอาจจับตัวเป็นหยาดน้ำค้าง 51 ฟาเรนไฮน์
ความชื้น 64%
Rainfall 0.00 นิ้ว
Snow Depth Not available.
UV 1.1 out of 12
Pollen Not available.
Air Quality Not available.
Flu Activity Not available.
METAR RKSS 220600Z 11003KT 9999 BKN040 17/05 Q1020 NOSIG

More Conditions Fewer Conditions

ความดัน 30.12 นิ้ว
ทัศนวิสัย 6.2 ไมล์
เมฆ มีเมฆคลุมเป็นส่วนใหญ่ 4000 ft
อุณหภูมิที่อากาศอาจจับตัวเป็นหยาดน้ำค้าง 51 ฟาเรนไฮน์
ความชื้น 64%
Rainfall 0.00 นิ้ว
Snow Depth Not available.
UV 1.1 out of 12
Pollen Not available.
Air Quality Not available.
Flu Activity Not available.
METAR RKSS 220600Z 11003KT 9999 BKN040 17/05 Q1020 NOSIG

More Conditions Fewer Conditions

10-Day Weather Forecast

Almanac

ดาราศาสตร์

Oct. 22, 2014 Rise Set
Actual Time 6:46 AM KST 5:46 PM KST
Civil Twilight 6:19 AM KST 6:13 PM KST
Nautical Twilight 5:49 AM KST 6:43 PM KST
Astronomical Twilight 5:19 AM KST 7:13 PM KST
Moon 4:55 AM KST 4:51 PM KST
Length Of Visible Light 11h 53m
ความยาวของวัน
10h 59m
Tomorrow will be 2m 15s shorter.
เดือนเสี้ยว, 3% of the Moon is Illuminated
วันนี้
เดือนเสี้ยว
Oct 23
New
Oct 30
ไตรมาสแรก
Nov 6
พระจันทร์เต็มดวง
Nov 14
ไตรมาสล่าสุด

Yesterday's Extremes

Country Highs Country Lows

Community

WunderPhotos

Upload Photos

1,763,885 photos uploaded!

Nearby

Snow Depth

Not available.

Earthquake Activity

City Distance Mag. Time & Date
No recent earthquake activity has been reported nearby.
Minimum magnitude displayed is 2.5.

Coastal Water Temperatures

สถานที่ อุณหภูมิ
No Stations Reporting

Nearby Weather Stations